• Join FlightAware (Why Join?)
  • Login
  • US Flag 
11:35PM EST


 

Airport Tracker/Info


-or-


 

Live Flight TrackerFlight Track Log ✈ N319EE ✈ 09-Jun-2014 ✈ KBGM - KAUG

Flight Track Log - Related Links

Times and Time Zones

All times are in EDT time to prevent confusion due to time zone crossing. See the N319EE flight status page for this flight to view local times or setup timezone preferences in your user account.

Time Position Orientation Groundspeed Altitude Reporting Facility
EDT Latitude Longitude Course Direction KTS MPH feet Rate Location/Type
09:27AM 42.2103 -75.9242 68° East 180 207 21,000  Level Boston Center
09:28AM 42.2369 -75.8617 60° Northeast 185 213 4,200 -7,560 Descending Boston Center
09:29AM 42.2631 -75.7972 61° Northeast 190 219 5,600 1,320 Climbing Boston Center
09:30AM 42.2878 -75.7294 64° Northeast 195 224 7,000 1,380 Climbing Boston Center
09:31AM 42.3142 -75.6581 63° Northeast 212 244 8,500 1,320 Climbing Boston Center
09:32AM 42.3403 -75.5806 65° Northeast 222 255 9,800 1,440 Climbing Boston Center
09:33AM 42.3463 -75.5291 68° East  Level FlightAware Approximate
09:33AM 42.3753 -75.4908 62° Northeast 229 264 11,500  Level Boston Center
09:34AM 42.4044 -75.4108 64° Northeast 233 268 13,100 1,500 Climbing Boston Center
09:35AM 42.4344 -75.3325 63° Northeast 234 269 14,600 1,500 Climbing Boston Center
09:37AM 42.4639 -75.2556 63° Northeast 234 269 16,200 1,320 Climbing Boston Center
09:38AM 42.4908 -75.1819 64° Northeast 222 255 17,400 1,080 Climbing Boston Center
09:39AM 42.5183 -75.1089 63° Northeast 222 255 18,500 1,020 Climbing Boston Center
09:40AM 42.5461 -75.0350 63° Northeast 222 255 19,500 960 Climbing Boston Center
09:41AM 42.5750 -74.9575 63° Northeast 226 260 20,500 720 Climbing Boston Center
09:42AM 42.6094 -74.8631 64° Northeast 234 269 21,000 240 Climbing Boston Center
09:43AM 42.6425 -74.7731 63° Northeast 262 302 21,000  Level Boston Center
09:44AM 42.6756 -74.6822 64° Northeast 265 305 21,000  Level Boston Center
09:45AM 42.7094 -74.5911 63° Northeast 271 312 21,000  Level Boston Center
09:46AM 42.7428 -74.5000 63° Northeast 271 312 21,000  Level Boston Center
09:47AM 42.7753 -74.4100 64° Northeast 270 311 21,000  Level Boston Center
09:48AM 42.8092 -74.3178 63° Northeast 270 311 21,000  Level Boston Center
09:49AM 42.8478 -74.2081 64° Northeast 271 312 21,000  Level Boston Center
09:50AM 42.8817 -74.1175 63° Northeast 271 312 21,000  Level Boston Center
09:51AM 42.9144 -74.0244 64° Northeast 271 312 21,000  Level Boston Center
09:52AM 42.9469 -73.9325 64° Northeast 271 312 21,000  Level Boston Center
09:53AM 42.9814 -73.8400 63° Northeast 272 313 21,000  Level Boston Center
09:54AM 43.0136 -73.7478 64° Northeast 272 313 21,000  Level Boston Center
09:55AM 43.0467 -73.6553 64° Northeast 273 314 21,000  Level Boston Center
09:56AM 43.0800 -73.5614 64° Northeast 273 314 21,000  Level Boston Center
09:57AM 43.1197 -73.4489 64° Northeast 273 314 21,000  Level Boston Center
09:58AM 43.1528 -73.3561 64° Northeast 274 315 21,000  Level Boston Center
09:59AM 43.1872 -73.2550 65° Northeast 274 315 21,000  Level Boston Center
10:00AM 43.2208 -73.1606 64° Northeast 275 316 21,000  Level Boston Center
10:01AM 43.2533 -73.0658 65° Northeast 275 316 21,000  Level Boston Center
10:02AM 43.2869 -72.9700 64° Northeast 276 318 21,000  Level Boston Center
10:03AM 43.3192 -72.8744 65° Northeast 276 318 21,000  Level Boston Center
10:04AM 43.3528 -72.7786 64° Northeast 277 319 21,000  Level Boston Center
10:05AM 43.3853 -72.6814 65° Northeast 278 320 21,000  Level Boston Center
10:06AM 43.4178 -72.5872 65° Northeast 278 320 21,000  Level Boston Center
10:07AM 43.4503 -72.4903 65° Northeast 278 320 21,000  Level Boston Center
10:08AM 43.4892 -72.3758 65° Northeast 277 319 21,000  Level Boston Center
10:09AM 43.5214 -72.2806 65° Northeast 276 318 21,000  Level Boston Center
10:10AM 43.5539 -72.1850 65° Northeast 277 319 21,000  Level Boston Center
10:11AM 43.5850 -72.0903 66° East 273 314 21,000  Level Boston Center
10:12AM 43.6181 -71.9947 64° Northeast 275 316 21,000  Level Boston Center
10:13AM 43.6494 -71.8986 66° East 275 316 21,000  Level Boston Center
10:14AM 43.6814 -71.8019 65° Northeast 275 316 21,000  Level Boston Center
10:15AM 43.7131 -71.7047 66° East 276 318 21,000  Level Boston Center
10:16AM 43.7517 -71.5881 65° Northeast 277 319 21,000  Level Boston Center
10:17AM 43.7806 -71.5006 65° Northeast 278 320 21,000  Level Boston Center
10:19AM 43.8128 -71.4028 65° Northeast 279 321 21,000  Level Boston Center
10:20AM 43.8447 -71.3050 66° East 278 320 21,000  Level Boston Center
10:21AM 43.8822 -71.1869 66° East 279 321 21,000  Level Boston Center
10:22AM 43.9142 -71.0881 66° East 279 321 21,000  Level Boston Center
10:23AM 43.9467 -70.9900 65° Northeast 279 321 21,000  Level Boston Center
10:24AM 43.9789 -70.8911 66° East 280 322 21,000 -420 Level Boston Center
10:25AM 44.0117 -70.7900 66° East 282 325 20,200 -1,080 Descending Boston Center
10:26AM 44.0506 -70.6661 66° East 312 359 18,800 -1,440 Descending Boston Center
10:27AM 44.0797 -70.5458 71° East 329 379 17,300 -1,860 Descending Boston Center
10:28AM 44.1047 -70.4244 74° East 329 379 15,100 -2,400 Descending Boston Center
10:29AM 44.1281 -70.3081 74° East 315 362 12,500 -3,120 Descending Boston Center
10:30AM 44.1514 -70.1936 74° East 290 334 8,800 -3,420 Descending Boston Center
10:31AM 44.1717 -70.0906 75° East 280 322 5,600 -2,760 Descending Boston Center
10:32AM 44.1917 -69.9919 74° East 269 310 3,200 -1,320 Descending Boston Center
10:33AM 44.2100 -69.8969 75° East 265 305 3,000 -240 Descending Boston Center